sensor_id;sensor_type;location;lat;lon;timestamp;temperature;humidity
5009;DHT22;2523;51.058;6.922;2023-10-19T00:00:37;11.40;99.90
5009;DHT22;2523;51.058;6.922;2023-10-19T00:03:05;11.40;99.90
5009;DHT22;2523;51.058;6.922;2023-10-19T00:05:32;11.40;99.90
5009;DHT22;2523;51.058;6.922;2023-10-19T00:07:58;11.50;99.90
5009;DHT22;2523;51.058;6.922;2023-10-19T00:10:26;11.50;99.90
5009;DHT22;2523;51.058;6.922;2023-10-19T00:16:01;11.50;99.90
5009;DHT22;2523;51.058;6.922;2023-10-19T00:18:35;11.60;99.90
5009;DHT22;2523;51.058;6.922;2023-10-19T00:21:01;11.50;99.90
5009;DHT22;2523;51.058;6.922;2023-10-19T00:23:44;11.60;99.90
5009;DHT22;2523;51.058;6.922;2023-10-19T00:26:12;11.60;99.90
5009;DHT22;2523;51.058;6.922;2023-10-19T00:28:44;11.60;99.90
5009;DHT22;2523;51.058;6.922;2023-10-19T00:31:12;11.60;99.90
5009;DHT22;2523;51.058;6.922;2023-10-19T00:33:39;11.60;99.90
5009;DHT22;2523;51.058;6.922;2023-10-19T00:36:07;11.60;99.90
5009;DHT22;2523;51.058;6.922;2023-10-19T00:38:34;11.60;99.90
5009;DHT22;2523;51.058;6.922;2023-10-19T00:41:06;11.60;99.90
5009;DHT22;2523;51.058;6.922;2023-10-19T00:43:35;11.60;99.90
5009;DHT22;2523;51.058;6.922;2023-10-19T00:46:14;11.60;99.90
5009;DHT22;2523;51.058;6.922;2023-10-19T00:48:57;11.60;99.90
5009;DHT22;2523;51.058;6.922;2023-10-19T00:51:34;11.60;99.90
5009;DHT22;2523;51.058;6.922;2023-10-19T00:54:14;11.60;99.90
5009;DHT22;2523;51.058;6.922;2023-10-19T00:56:45;11.60;99.90
5009;DHT22;2523;51.058;6.922;2023-10-19T00:59:16;11.60;99.90
5009;DHT22;2523;51.058;6.922;2023-10-19T01:01:55;11.70;99.90
5009;DHT22;2523;51.058;6.922;2023-10-19T01:04:42;11.70;99.90
5009;DHT22;2523;51.058;6.922;2023-10-19T01:07:09;11.70;99.90
5009;DHT22;2523;51.058;6.922;2023-10-19T01:09:47;11.70;99.90
5009;DHT22;2523;51.058;6.922;2023-10-19T01:12:12;11.70;99.90
5009;DHT22;2523;51.058;6.922;2023-10-19T01:18:04;11.80;99.90
5009;DHT22;2523;51.058;6.922;2023-10-19T01:20:31;11.80;99.90
5009;DHT22;2523;51.058;6.922;2023-10-19T01:23:02;11.90;99.90
5009;DHT22;2523;51.058;6.922;2023-10-19T01:28:34;11.90;99.90
5009;DHT22;2523;51.058;6.922;2023-10-19T01:31:05;12.00;99.90
5009;DHT22;2523;51.058;6.922;2023-10-19T01:33:34;12.00;99.90
5009;DHT22;2523;51.058;6.922;2023-10-19T01:36:00;12.00;99.90
5009;DHT22;2523;51.058;6.922;2023-10-19T01:38:44;12.00;99.90
5009;DHT22;2523;51.058;6.922;2023-10-19T01:41:13;12.00;99.90
5009;DHT22;2523;51.058;6.922;2023-10-19T01:43:42;12.00;99.90
5009;DHT22;2523;51.058;6.922;2023-10-19T01:46:09;12.00;99.90
5009;DHT22;2523;51.058;6.922;2023-10-19T01:48:42;12.00;99.90
5009;DHT22;2523;51.058;6.922;2023-10-19T01:51:10;12.00;99.90
5009;DHT22;2523;51.058;6.922;2023-10-19T01:53:37;12.00;99.90
5009;DHT22;2523;51.058;6.922;2023-10-19T01:56:13;12.00;99.90
5009;DHT22;2523;51.058;6.922;2023-10-19T01:58:40;12.00;99.90
5009;DHT22;2523;51.058;6.922;2023-10-19T02:01:07;12.10;99.90
5009;DHT22;2523;51.058;6.922;2023-10-19T02:03:35;12.10;99.90
5009;DHT22;2523;51.058;6.922;2023-10-19T02:06:02;12.10;99.90
5009;DHT22;2523;51.058;6.922;2023-10-19T02:08:51;12.10;99.90
5009;DHT22;2523;51.058;6.922;2023-10-19T02:11:24;12.20;99.90
5009;DHT22;2523;51.058;6.922;2023-10-19T02:13:55;12.10;99.90
5009;DHT22;2523;51.058;6.922;2023-10-19T02:16:22;12.20;99.90
5009;DHT22;2523;51.058;6.922;2023-10-19T02:18:49;12.20;99.90
5009;DHT22;2523;51.058;6.922;2023-10-19T02:21:15;12.20;99.90
5009;DHT22;2523;51.058;6.922;2023-10-19T02:23:44;12.30;99.90
5009;DHT22;2523;51.058;6.922;2023-10-19T02:26:10;12.30;99.90
5009;DHT22;2523;51.058;6.922;2023-10-19T02:28:39;12.30;99.90
5009;DHT22;2523;51.058;6.922;2023-10-19T02:31:05;12.30;99.90
5009;DHT22;2523;51.058;6.922;2023-10-19T02:33:44;12.30;99.90
5009;DHT22;2523;51.058;6.922;2023-10-19T02:36:12;12.30;99.90
5009;DHT22;2523;51.058;6.922;2023-10-19T02:38:42;12.40;99.90
5009;DHT22;2523;51.058;6.922;2023-10-19T02:41:09;12.40;99.90
5009;DHT22;2523;51.058;6.922;2023-10-19T02:43:36;12.40;99.90
5009;DHT22;2523;51.058;6.922;2023-10-19T02:46:02;12.40;99.90
5009;DHT22;2523;51.058;6.922;2023-10-19T02:48:29;12.40;99.90
5009;DHT22;2523;51.058;6.922;2023-10-19T02:50:54;12.40;99.90
5009;DHT22;2523;51.058;6.922;2023-10-19T02:53:20;12.40;99.90
5009;DHT22;2523;51.058;6.922;2023-10-19T02:55:45;12.40;99.90
5009;DHT22;2523;51.058;6.922;2023-10-19T02:58:11;12.40;99.90
5009;DHT22;2523;51.058;6.922;2023-10-19T03:00:37;12.40;99.90
5009;DHT22;2523;51.058;6.922;2023-10-19T03:03:03;12.50;99.90
5009;DHT22;2523;51.058;6.922;2023-10-19T03:05:32;12.50;99.90
5009;DHT22;2523;51.058;6.922;2023-10-19T03:08:01;12.50;99.90
5009;DHT22;2523;51.058;6.922;2023-10-19T03:10:31;12.50;99.90
5009;DHT22;2523;51.058;6.922;2023-10-19T03:13:07;12.50;99.90
5009;DHT22;2523;51.058;6.922;2023-10-19T03:15:33;12.50;99.90
5009;DHT22;2523;51.058;6.922;2023-10-19T03:17:59;12.50;99.90
5009;DHT22;2523;51.058;6.922;2023-10-19T03:20:29;12.50;99.90
5009;DHT22;2523;51.058;6.922;2023-10-19T03:22:58;12.50;99.90
5009;DHT22;2523;51.058;6.922;2023-10-19T03:25:26;12.50;99.90
5009;DHT22;2523;51.058;6.922;2023-10-19T03:28:11;12.50;99.90
5009;DHT22;2523;51.058;6.922;2023-10-19T03:30:37;12.50;99.90
5009;DHT22;2523;51.058;6.922;2023-10-19T03:33:06;12.50;99.90
5009;DHT22;2523;51.058;6.922;2023-10-19T03:35:37;12.50;99.90
5009;DHT22;2523;51.058;6.922;2023-10-19T03:38:04;12.50;99.90
5009;DHT22;2523;51.058;6.922;2023-10-19T03:40:39;12.50;99.90
5009;DHT22;2523;51.058;6.922;2023-10-19T03:43:05;12.60;99.90
5009;DHT22;2523;51.058;6.922;2023-10-19T03:45:42;12.50;99.90
5009;DHT22;2523;51.058;6.922;2023-10-19T03:48:12;12.50;99.90
5009;DHT22;2523;51.058;6.922;2023-10-19T03:50:38;12.50;99.90
5009;DHT22;2523;51.058;6.922;2023-10-19T03:53:04;12.50;99.90
5009;DHT22;2523;51.058;6.922;2023-10-19T03:55:32;12.50;99.90
5009;DHT22;2523;51.058;6.922;2023-10-19T03:58:03;12.50;99.90
5009;DHT22;2523;51.058;6.922;2023-10-19T04:00:30;12.50;99.90
5009;DHT22;2523;51.058;6.922;2023-10-19T04:02:59;12.50;99.90
5009;DHT22;2523;51.058;6.922;2023-10-19T04:05:24;12.50;99.90
5009;DHT22;2523;51.058;6.922;2023-10-19T04:07:51;12.50;99.90
5009;DHT22;2523;51.058;6.922;2023-10-19T04:10:21;12.50;99.90
5009;DHT22;2523;51.058;6.922;2023-10-19T04:13:16;12.50;99.90
5009;DHT22;2523;51.058;6.922;2023-10-19T04:15:41;12.50;99.90
5009;DHT22;2523;51.058;6.922;2023-10-19T04:18:07;12.60;99.90
5009;DHT22;2523;51.058;6.922;2023-10-19T04:20:35;12.60;99.90
5009;DHT22;2523;51.058;6.922;2023-10-19T04:23:14;12.60;99.90
5009;DHT22;2523;51.058;6.922;2023-10-19T04:25:40;12.60;99.90
5009;DHT22;2523;51.058;6.922;2023-10-19T04:28:06;12.60;99.90
5009;DHT22;2523;51.058;6.922;2023-10-19T04:30:32;12.60;99.90
5009;DHT22;2523;51.058;6.922;2023-10-19T04:32:59;12.60;99.90
5009;DHT22;2523;51.058;6.922;2023-10-19T04:35:27;12.70;99.90
5009;DHT22;2523;51.058;6.922;2023-10-19T04:37:56;12.70;99.90
5009;DHT22;2523;51.058;6.922;2023-10-19T04:40:22;12.70;99.90
5009;DHT22;2523;51.058;6.922;2023-10-19T04:42:52;12.80;99.90
5009;DHT22;2523;51.058;6.922;2023-10-19T04:45:19;12.80;99.90
5009;DHT22;2523;51.058;6.922;2023-10-19T04:47:44;12.80;99.90
5009;DHT22;2523;51.058;6.922;2023-10-19T04:50:11;12.80;99.90
5009;DHT22;2523;51.058;6.922;2023-10-19T04:52:38;12.80;99.90
5009;DHT22;2523;51.058;6.922;2023-10-19T04:55:04;12.80;99.90
5009;DHT22;2523;51.058;6.922;2023-10-19T04:57:30;12.90;99.90
5009;DHT22;2523;51.058;6.922;2023-10-19T04:59:56;12.90;99.90
5009;DHT22;2523;51.058;6.922;2023-10-19T05:02:22;12.90;99.90
5009;DHT22;2523;51.058;6.922;2023-10-19T05:04:48;12.90;99.90
5009;DHT22;2523;51.058;6.922;2023-10-19T05:07:14;12.90;99.90
5009;DHT22;2523;51.058;6.922;2023-10-19T05:09:43;12.90;99.90
5009;DHT22;2523;51.058;6.922;2023-10-19T05:12:09;12.90;99.90
5009;DHT22;2523;51.058;6.922;2023-10-19T05:14:37;12.90;99.90
5009;DHT22;2523;51.058;6.922;2023-10-19T05:17:03;12.90;99.90
5009;DHT22;2523;51.058;6.922;2023-10-19T05:19:32;12.90;99.90
5009;DHT22;2523;51.058;6.922;2023-10-19T05:22:00;12.90;99.90
5009;DHT22;2523;51.058;6.922;2023-10-19T05:24:26;12.90;99.90
5009;DHT22;2523;51.058;6.922;2023-10-19T05:26:53;12.90;99.90
5009;DHT22;2523;51.058;6.922;2023-10-19T05:29:19;12.90;99.90
5009;DHT22;2523;51.058;6.922;2023-10-19T05:31:45;12.90;99.90
5009;DHT22;2523;51.058;6.922;2023-10-19T05:34:10;12.90;99.90
5009;DHT22;2523;51.058;6.922;2023-10-19T05:36:36;12.90;99.90
5009;DHT22;2523;51.058;6.922;2023-10-19T05:39:01;12.90;99.90
5009;DHT22;2523;51.058;6.922;2023-10-19T05:41:29;12.90;99.90
5009;DHT22;2523;51.058;6.922;2023-10-19T05:43:56;13.00;99.90
5009;DHT22;2523;51.058;6.922;2023-10-19T05:46:22;13.00;99.90
5009;DHT22;2523;51.058;6.922;2023-10-19T05:48:50;13.00;99.90
5009;DHT22;2523;51.058;6.922;2023-10-19T05:51:16;13.00;99.90
5009;DHT22;2523;51.058;6.922;2023-10-19T05:53:42;13.00;99.90
5009;DHT22;2523;51.058;6.922;2023-10-19T05:56:13;12.90;99.90
5009;DHT22;2523;51.058;6.922;2023-10-19T05:58:38;13.00;99.90
5009;DHT22;2523;51.058;6.922;2023-10-19T06:01:04;13.00;99.90
5009;DHT22;2523;51.058;6.922;2023-10-19T06:03:30;13.00;99.90
5009;DHT22;2523;51.058;6.922;2023-10-19T06:05:56;13.00;99.90
5009;DHT22;2523;51.058;6.922;2023-10-19T06:08:25;13.00;99.90
5009;DHT22;2523;51.058;6.922;2023-10-19T06:10:53;13.00;99.90
5009;DHT22;2523;51.058;6.922;2023-10-19T06:13:20;13.00;99.90
5009;DHT22;2523;51.058;6.922;2023-10-19T06:15:45;13.00;99.90
5009;DHT22;2523;51.058;6.922;2023-10-19T06:18:11;13.00;99.90
5009;DHT22;2523;51.058;6.922;2023-10-19T06:20:43;13.10;99.90
5009;DHT22;2523;51.058;6.922;2023-10-19T06:23:09;13.10;99.90
5009;DHT22;2523;51.058;6.922;2023-10-19T06:25:37;13.10;99.90
5009;DHT22;2523;51.058;6.922;2023-10-19T06:28:02;13.10;99.90
5009;DHT22;2523;51.058;6.922;2023-10-19T06:30:29;13.10;99.90
5009;DHT22;2523;51.058;6.922;2023-10-19T06:32:57;13.20;99.90
5009;DHT22;2523;51.058;6.922;2023-10-19T06:35:26;13.20;99.90
5009;DHT22;2523;51.058;6.922;2023-10-19T06:37:53;13.20;99.90
5009;DHT22;2523;51.058;6.922;2023-10-19T06:40:21;13.20;99.90
5009;DHT22;2523;51.058;6.922;2023-10-19T06:42:48;13.20;99.90
5009;DHT22;2523;51.058;6.922;2023-10-19T06:45:16;13.20;99.90
5009;DHT22;2523;51.058;6.922;2023-10-19T06:47:47;13.20;99.90
5009;DHT22;2523;51.058;6.922;2023-10-19T06:50:15;13.20;99.90
5009;DHT22;2523;51.058;6.922;2023-10-19T06:52:42;13.20;99.90
5009;DHT22;2523;51.058;6.922;2023-10-19T06:55:08;13.30;99.90
5009;DHT22;2523;51.058;6.922;2023-10-19T06:57:40;13.20;99.90
5009;DHT22;2523;51.058;6.922;2023-10-19T07:00:09;13.30;99.90
5009;DHT22;2523;51.058;6.922;2023-10-19T07:02:42;13.30;99.90
5009;DHT22;2523;51.058;6.922;2023-10-19T07:05:09;13.30;99.90
5009;DHT22;2523;51.058;6.922;2023-10-19T07:07:42;13.30;99.90
5009;DHT22;2523;51.058;6.922;2023-10-19T07:10:09;13.30;99.90
5009;DHT22;2523;51.058;6.922;2023-10-19T07:12:36;13.40;99.90
5009;DHT22;2523;51.058;6.922;2023-10-19T07:15:03;13.40;99.90
5009;DHT22;2523;51.058;6.922;2023-10-19T07:17:35;13.40;99.90
5009;DHT22;2523;51.058;6.922;2023-10-19T07:20:04;13.40;99.90
5009;DHT22;2523;51.058;6.922;2023-10-19T07:22:32;13.40;99.90
5009;DHT22;2523;51.058;6.922;2023-10-19T07:24:57;13.50;99.90
5009;DHT22;2523;51.058;6.922;2023-10-19T07:27:23;13.50;99.90
5009;DHT22;2523;51.058;6.922;2023-10-19T07:29:52;13.50;99.90
5009;DHT22;2523;51.058;6.922;2023-10-19T07:32:18;13.60;99.90
5009;DHT22;2523;51.058;6.922;2023-10-19T07:34:43;13.60;99.90
5009;DHT22;2523;51.058;6.922;2023-10-19T07:37:10;13.60;99.90
5009;DHT22;2523;51.058;6.922;2023-10-19T07:39:45;13.60;99.90
5009;DHT22;2523;51.058;6.922;2023-10-19T07:42:11;13.60;99.90
5009;DHT22;2523;51.058;6.922;2023-10-19T07:44:36;13.70;99.90
5009;DHT22;2523;51.058;6.922;2023-10-19T07:47:02;13.70;99.90
5009;DHT22;2523;51.058;6.922;2023-10-19T07:49:27;13.70;99.90
5009;DHT22;2523;51.058;6.922;2023-10-19T07:51:53;13.80;99.90
5009;DHT22;2523;51.058;6.922;2023-10-19T07:54:19;13.80;99.90
5009;DHT22;2523;51.058;6.922;2023-10-19T07:56:46;13.80;99.90
5009;DHT22;2523;51.058;6.922;2023-10-19T07:59:12;13.90;99.90
5009;DHT22;2523;51.058;6.922;2023-10-19T08:01:38;13.90;99.90
5009;DHT22;2523;51.058;6.922;2023-10-19T08:04:04;14.00;99.90
5009;DHT22;2523;51.058;6.922;2023-10-19T08:06:30;14.00;99.90
5009;DHT22;2523;51.058;6.922;2023-10-19T08:08:56;14.00;99.90
5009;DHT22;2523;51.058;6.922;2023-10-19T08:11:23;14.00;99.90
5009;DHT22;2523;51.058;6.922;2023-10-19T08:13:49;14.10;99.90
5009;DHT22;2523;51.058;6.922;2023-10-19T08:16:15;14.10;99.90
5009;DHT22;2523;51.058;6.922;2023-10-19T08:18:42;14.10;99.90
5009;DHT22;2523;51.058;6.922;2023-10-19T08:21:08;14.20;99.90
5009;DHT22;2523;51.058;6.922;2023-10-19T08:23:33;14.20;99.90
5009;DHT22;2523;51.058;6.922;2023-10-19T08:25:59;14.20;99.90
5009;DHT22;2523;51.058;6.922;2023-10-19T08:28:25;14.20;99.90
5009;DHT22;2523;51.058;6.922;2023-10-19T08:30:51;14.30;99.90
5009;DHT22;2523;51.058;6.922;2023-10-19T08:33:23;14.30;99.90
5009;DHT22;2523;51.058;6.922;2023-10-19T08:35:54;14.40;99.90
5009;DHT22;2523;51.058;6.922;2023-10-19T08:38:20;14.40;99.90
5009;DHT22;2523;51.058;6.922;2023-10-19T08:40:47;14.50;99.90
5009;DHT22;2523;51.058;6.922;2023-10-19T08:43:13;14.60;99.90
5009;DHT22;2523;51.058;6.922;2023-10-19T08:45:44;14.70;99.90
5009;DHT22;2523;51.058;6.922;2023-10-19T08:48:09;14.80;99.90
5009;DHT22;2523;51.058;6.922;2023-10-19T08:50:37;15.00;99.90
5009;DHT22;2523;51.058;6.922;2023-10-19T08:53:04;15.20;99.90
5009;DHT22;2523;51.058;6.922;2023-10-19T08:55:30;15.40;99.90
5009;DHT22;2523;51.058;6.922;2023-10-19T08:57:56;15.50;99.90
5009;DHT22;2523;51.058;6.922;2023-10-19T09:00:25;15.70;99.90
5009;DHT22;2523;51.058;6.922;2023-10-19T09:02:52;16.00;99.90
5009;DHT22;2523;51.058;6.922;2023-10-19T09:05:19;16.50;99.90
5009;DHT22;2523;51.058;6.922;2023-10-19T09:07:53;17.10;99.90
5009;DHT22;2523;51.058;6.922;2023-10-19T09:10:22;17.70;99.90
5009;DHT22;2523;51.058;6.922;2023-10-19T09:12:59;18.10;99.90
5009;DHT22;2523;51.058;6.922;2023-10-19T09:15:27;18.40;99.90
5009;DHT22;2523;51.058;6.922;2023-10-19T09:17:53;18.70;99.90
5009;DHT22;2523;51.058;6.922;2023-10-19T09:20:21;18.90;99.90
5009;DHT22;2523;51.058;6.922;2023-10-19T09:22:55;19.10;99.90
5009;DHT22;2523;51.058;6.922;2023-10-19T09:25:23;19.70;99.90
5009;DHT22;2523;51.058;6.922;2023-10-19T09:27:49;19.70;99.90
5009;DHT22;2523;51.058;6.922;2023-10-19T09:30:15;20.10;99.90
5009;DHT22;2523;51.058;6.922;2023-10-19T09:32:49;20.20;99.90
5009;DHT22;2523;51.058;6.922;2023-10-19T09:35:16;19.90;99.90
5009;DHT22;2523;51.058;6.922;2023-10-19T09:37:42;19.80;99.90
5009;DHT22;2523;51.058;6.922;2023-10-19T09:40:13;19.60;99.90
5009;DHT22;2523;51.058;6.922;2023-10-19T09:42:49;19.70;99.90
5009;DHT22;2523;51.058;6.922;2023-10-19T09:45:19;19.90;99.90
5009;DHT22;2523;51.058;6.922;2023-10-19T09:47:50;20.40;99.90
5009;DHT22;2523;51.058;6.922;2023-10-19T09:50:16;21.10;99.90
5009;DHT22;2523;51.058;6.922;2023-10-19T09:52:42;21.50;99.90
5009;DHT22;2523;51.058;6.922;2023-10-19T10:00:27;22.20;99.90
5009;DHT22;2523;51.058;6.922;2023-10-19T10:02:57;22.20;99.90
5009;DHT22;2523;51.058;6.922;2023-10-19T10:15:53;21.00;99.90
5009;DHT22;2523;51.058;6.922;2023-10-19T10:18:32;20.80;99.90
5009;DHT22;2523;51.058;6.922;2023-10-19T10:21:07;20.30;99.90
5009;DHT22;2523;51.058;6.922;2023-10-19T10:23:46;20.20;99.90
5009;DHT22;2523;51.058;6.922;2023-10-19T10:26:13;19.80;99.90
5009;DHT22;2523;51.058;6.922;2023-10-19T10:28:40;19.70;99.90
5009;DHT22;2523;51.058;6.922;2023-10-19T10:31:14;19.50;99.90
5009;DHT22;2523;51.058;6.922;2023-10-19T10:36:06;19.30;99.90
5009;DHT22;2523;51.058;6.922;2023-10-19T10:38:34;19.80;99.90
5009;DHT22;2523;51.058;6.922;2023-10-19T10:41:03;20.40;99.90
5009;DHT22;2523;51.058;6.922;2023-10-19T10:43:29;21.90;99.90
5009;DHT22;2523;51.058;6.922;2023-10-19T10:46:05;22.40;99.90
5009;DHT22;2523;51.058;6.922;2023-10-19T10:48:32;22.30;99.90
5009;DHT22;2523;51.058;6.922;2023-10-19T10:50:58;21.70;99.90
5009;DHT22;2523;51.058;6.922;2023-10-19T10:53:24;21.00;99.90
5009;DHT22;2523;51.058;6.922;2023-10-19T10:55:52;20.40;99.90
5009;DHT22;2523;51.058;6.922;2023-10-19T10:58:18;19.90;99.90
5009;DHT22;2523;51.058;6.922;2023-10-19T11:00:45;19.60;99.90
5009;DHT22;2523;51.058;6.922;2023-10-19T11:03:12;19.50;99.90
5009;DHT22;2523;51.058;6.922;2023-10-19T11:05:39;19.70;99.90
5009;DHT22;2523;51.058;6.922;2023-10-19T11:08:11;19.60;99.90
5009;DHT22;2523;51.058;6.922;2023-10-19T11:10:42;19.50;99.90
5009;DHT22;2523;51.058;6.922;2023-10-19T11:13:12;19.30;99.90
5009;DHT22;2523;51.058;6.922;2023-10-19T11:15:47;19.10;99.90
5009;DHT22;2523;51.058;6.922;2023-10-19T11:18:40;18.90;99.90
5009;DHT22;2523;51.058;6.922;2023-10-19T11:21:11;18.70;99.90
5009;DHT22;2523;51.058;6.922;2023-10-19T11:23:47;18.60;99.90
5009;DHT22;2523;51.058;6.922;2023-10-19T11:26:18;18.50;99.90
5009;DHT22;2523;51.058;6.922;2023-10-19T11:28:44;18.50;99.90
5009;DHT22;2523;51.058;6.922;2023-10-19T11:31:21;18.40;99.90
5009;DHT22;2523;51.058;6.922;2023-10-19T11:33:50;18.40;99.90
5009;DHT22;2523;51.058;6.922;2023-10-19T11:36:17;18.50;99.90
5009;DHT22;2523;51.058;6.922;2023-10-19T11:38:45;18.50;99.90
5009;DHT22;2523;51.058;6.922;2023-10-19T11:41:11;18.50;99.90
5009;DHT22;2523;51.058;6.922;2023-10-19T11:43:43;18.40;99.90
5009;DHT22;2523;51.058;6.922;2023-10-19T11:46:09;18.40;99.90
5009;DHT22;2523;51.058;6.922;2023-10-19T11:48:37;18.30;99.90
5009;DHT22;2523;51.058;6.922;2023-10-19T11:51:05;18.30;99.90
5009;DHT22;2523;51.058;6.922;2023-10-19T11:53:32;18.30;99.90
5009;DHT22;2523;51.058;6.922;2023-10-19T11:56:04;18.20;99.90
5009;DHT22;2523;51.058;6.922;2023-10-19T11:58:30;18.20;99.90
5009;DHT22;2523;51.058;6.922;2023-10-19T12:00:58;18.20;99.90
5009;DHT22;2523;51.058;6.922;2023-10-19T12:03:24;18.10;99.90
5009;DHT22;2523;51.058;6.922;2023-10-19T12:05:51;18.10;99.90
5009;DHT22;2523;51.058;6.922;2023-10-19T12:08:18;18.10;99.90
5009;DHT22;2523;51.058;6.922;2023-10-19T12:10:44;18.00;99.90
5009;DHT22;2523;51.058;6.922;2023-10-19T12:13:09;18.00;99.90
5009;DHT22;2523;51.058;6.922;2023-10-19T12:15:35;17.90;99.90
5009;DHT22;2523;51.058;6.922;2023-10-19T12:18:01;17.90;99.90
5009;DHT22;2523;51.058;6.922;2023-10-19T12:20:28;17.90;99.90
5009;DHT22;2523;51.058;6.922;2023-10-19T12:22:56;17.90;99.90
5009;DHT22;2523;51.058;6.922;2023-10-19T12:25:22;17.80;99.90
5009;DHT22;2523;51.058;6.922;2023-10-19T12:27:56;17.80;99.90
5009;DHT22;2523;51.058;6.922;2023-10-19T12:30:21;17.70;99.90
5009;DHT22;2523;51.058;6.922;2023-10-19T12:32:50;17.70;99.90
5009;DHT22;2523;51.058;6.922;2023-10-19T12:35:16;17.60;99.90
5009;DHT22;2523;51.058;6.922;2023-10-19T12:37:45;17.60;99.90
5009;DHT22;2523;51.058;6.922;2023-10-19T12:40:13;17.50;99.90
5009;DHT22;2523;51.058;6.922;2023-10-19T12:42:55;17.50;99.90
5009;DHT22;2523;51.058;6.922;2023-10-19T12:45:25;17.50;99.90
5009;DHT22;2523;51.058;6.922;2023-10-19T12:47:54;17.40;99.90
5009;DHT22;2523;51.058;6.922;2023-10-19T12:50:21;17.50;99.90
5009;DHT22;2523;51.058;6.922;2023-10-19T12:52:49;17.50;99.90
5009;DHT22;2523;51.058;6.922;2023-10-19T12:55:15;17.40;99.90
5009;DHT22;2523;51.058;6.922;2023-10-19T12:57:41;17.40;99.90
5009;DHT22;2523;51.058;6.922;2023-10-19T13:00:07;17.40;99.90
5009;DHT22;2523;51.058;6.922;2023-10-19T13:02:49;17.40;99.90
5009;DHT22;2523;51.058;6.922;2023-10-19T13:05:15;17.30;99.90
5009;DHT22;2523;51.058;6.922;2023-10-19T13:07:46;17.30;99.90
5009;DHT22;2523;51.058;6.922;2023-10-19T13:10:12;17.20;99.90
5009;DHT22;2523;51.058;6.922;2023-10-19T13:12:37;17.20;99.90
5009;DHT22;2523;51.058;6.922;2023-10-19T13:15:04;17.20;99.90
5009;DHT22;2523;51.058;6.922;2023-10-19T13:17:38;17.20;99.90
5009;DHT22;2523;51.058;6.922;2023-10-19T13:20:04;17.20;99.90
5009;DHT22;2523;51.058;6.922;2023-10-19T13:22:41;17.20;99.90
5009;DHT22;2523;51.058;6.922;2023-10-19T13:25:07;17.20;99.90
5009;DHT22;2523;51.058;6.922;2023-10-19T13:27:35;17.20;99.90
5009;DHT22;2523;51.058;6.922;2023-10-19T13:30:00;17.20;99.90
5009;DHT22;2523;51.058;6.922;2023-10-19T13:32:29;17.10;99.90
5009;DHT22;2523;51.058;6.922;2023-10-19T13:34:56;17.10;99.90
5009;DHT22;2523;51.058;6.922;2023-10-19T13:37:22;17.10;99.90
5009;DHT22;2523;51.058;6.922;2023-10-19T13:39:48;17.00;99.90
5009;DHT22;2523;51.058;6.922;2023-10-19T13:42:14;17.00;99.90
5009;DHT22;2523;51.058;6.922;2023-10-19T13:44:40;17.00;99.90
5009;DHT22;2523;51.058;6.922;2023-10-19T13:47:05;16.90;99.90
5009;DHT22;2523;51.058;6.922;2023-10-19T13:49:34;16.90;99.90
5009;DHT22;2523;51.058;6.922;2023-10-19T13:52:00;16.80;99.90
5009;DHT22;2523;51.058;6.922;2023-10-19T13:54:26;16.80;99.90
5009;DHT22;2523;51.058;6.922;2023-10-19T13:56:52;16.70;99.90
5009;DHT22;2523;51.058;6.922;2023-10-19T13:59:17;16.70;99.90
5009;DHT22;2523;51.058;6.922;2023-10-19T14:01:43;16.70;99.90
5009;DHT22;2523;51.058;6.922;2023-10-19T14:04:08;16.60;99.90
5009;DHT22;2523;51.058;6.922;2023-10-19T14:06:34;16.60;99.90
5009;DHT22;2523;51.058;6.922;2023-10-19T14:09:00;16.60;99.90
5009;DHT22;2523;51.058;6.922;2023-10-19T14:11:25;16.60;99.90
5009;DHT22;2523;51.058;6.922;2023-10-19T14:13:51;16.50;99.90
5009;DHT22;2523;51.058;6.922;2023-10-19T14:16:17;16.50;99.90
5009;DHT22;2523;51.058;6.922;2023-10-19T14:18:43;16.50;99.90
5009;DHT22;2523;51.058;6.922;2023-10-19T14:21:16;16.50;99.90
5009;DHT22;2523;51.058;6.922;2023-10-19T14:23:42;16.50;99.90
5009;DHT22;2523;51.058;6.922;2023-10-19T14:26:10;16.60;99.90
5009;DHT22;2523;51.058;6.922;2023-10-19T14:28:36;16.60;99.90
5009;DHT22;2523;51.058;6.922;2023-10-19T14:31:02;16.70;99.90
5009;DHT22;2523;51.058;6.922;2023-10-19T14:33:30;16.70;99.90
5009;DHT22;2523;51.058;6.922;2023-10-19T14:35:55;16.60;99.90
5009;DHT22;2523;51.058;6.922;2023-10-19T14:38:21;16.60;99.90
5009;DHT22;2523;51.058;6.922;2023-10-19T14:40:47;16.60;99.90
5009;DHT22;2523;51.058;6.922;2023-10-19T14:43:13;16.60;99.90
5009;DHT22;2523;51.058;6.922;2023-10-19T14:45:40;16.50;99.90
5009;DHT22;2523;51.058;6.922;2023-10-19T14:48:06;16.50;99.90
5009;DHT22;2523;51.058;6.922;2023-10-19T14:50:35;16.40;99.90
5009;DHT22;2523;51.058;6.922;2023-10-19T14:53:01;16.40;99.90
5009;DHT22;2523;51.058;6.922;2023-10-19T14:55:27;16.40;99.90
5009;DHT22;2523;51.058;6.922;2023-10-19T14:57:54;16.40;99.90
5009;DHT22;2523;51.058;6.922;2023-10-19T15:00:24;16.40;99.90
5009;DHT22;2523;51.058;6.922;2023-10-19T15:03:00;16.40;99.90
5009;DHT22;2523;51.058;6.922;2023-10-19T15:05:29;16.40;99.90
5009;DHT22;2523;51.058;6.922;2023-10-19T15:07:54;16.40;99.90
5009;DHT22;2523;51.058;6.922;2023-10-19T15:10:25;16.40;99.90
5009;DHT22;2523;51.058;6.922;2023-10-19T15:12:51;16.40;99.90
5009;DHT22;2523;51.058;6.922;2023-10-19T15:15:17;16.40;99.90
5009;DHT22;2523;51.058;6.922;2023-10-19T15:17:44;16.30;99.90
5009;DHT22;2523;51.058;6.922;2023-10-19T15:20:14;16.40;99.90
5009;DHT22;2523;51.058;6.922;2023-10-19T15:22:44;16.40;99.90
5009;DHT22;2523;51.058;6.922;2023-10-19T15:25:11;16.50;99.90
5009;DHT22;2523;51.058;6.922;2023-10-19T15:27:42;16.50;99.90
5009;DHT22;2523;51.058;6.922;2023-10-19T15:30:09;16.50;99.90
5009;DHT22;2523;51.058;6.922;2023-10-19T15:32:37;16.50;99.90
5009;DHT22;2523;51.058;6.922;2023-10-19T15:35:02;16.50;99.90
5009;DHT22;2523;51.058;6.922;2023-10-19T15:37:29;16.50;99.90
5009;DHT22;2523;51.058;6.922;2023-10-19T15:39:55;16.50;99.90
5009;DHT22;2523;51.058;6.922;2023-10-19T15:42:20;16.50;99.90
5009;DHT22;2523;51.058;6.922;2023-10-19T15:44:50;16.50;99.90
5009;DHT22;2523;51.058;6.922;2023-10-19T15:47:17;16.50;99.90
5009;DHT22;2523;51.058;6.922;2023-10-19T15:49:53;16.40;99.90
5009;DHT22;2523;51.058;6.922;2023-10-19T15:52:23;16.40;99.90
5009;DHT22;2523;51.058;6.922;2023-10-19T15:54:49;16.40;99.90
5009;DHT22;2523;51.058;6.922;2023-10-19T15:57:16;16.40;99.90
5009;DHT22;2523;51.058;6.922;2023-10-19T15:59:42;16.40;99.90
5009;DHT22;2523;51.058;6.922;2023-10-19T16:02:11;16.40;99.90
5009;DHT22;2523;51.058;6.922;2023-10-19T16:04:41;16.40;99.90
5009;DHT22;2523;51.058;6.922;2023-10-19T16:07:14;16.40;99.90
5009;DHT22;2523;51.058;6.922;2023-10-19T16:09:41;16.40;99.90
5009;DHT22;2523;51.058;6.922;2023-10-19T16:12:08;16.30;99.90
5009;DHT22;2523;51.058;6.922;2023-10-19T16:14:38;16.20;99.90
5009;DHT22;2523;51.058;6.922;2023-10-19T16:17:07;16.20;99.90
5009;DHT22;2523;51.058;6.922;2023-10-19T16:19:34;16.10;99.90
5009;DHT22;2523;51.058;6.922;2023-10-19T16:22:00;16.10;99.90
5009;DHT22;2523;51.058;6.922;2023-10-19T16:24:26;16.00;99.90
5009;DHT22;2523;51.058;6.922;2023-10-19T16:26:53;16.00;99.90
5009;DHT22;2523;51.058;6.922;2023-10-19T16:29:22;16.00;99.90
5009;DHT22;2523;51.058;6.922;2023-10-19T16:31:48;15.90;99.90
5009;DHT22;2523;51.058;6.922;2023-10-19T16:34:15;15.90;99.90
5009;DHT22;2523;51.058;6.922;2023-10-19T16:36:42;15.90;99.90